Time;durP1;ratioP1;P1;durP2;ratioP2;P2;SDS_P1;SDS_P2;PMS_P1;PMS_P2;Temp;Humidity;BMP_temperature;BMP_pressure;BME280_temperature;BME280_humidity;BME280_pressure;Samples;Min_cycle;Max_cycle;Signal;HPM_P1;HPM_P2
2021/08/09 00:01:38;;;;;;;9.60;3.10;;;;;;;15.73;80.12;101148.67;1804082;78;21065;-86
2021/08/09 00:04:05;;;;;;;5.55;2.58;;;;;;;15.77;80.25;101148.72;1808815;78;21120;-86
2021/08/09 00:06:32;;;;;;;4.37;2.42;;;;;;;15.81;80.32;101146.09;1804829;78;21027;-87
2021/08/09 00:09:00;;;;;;;5.05;2.50;;;;;;;15.82;80.25;101142.58;1807412;78;21854;-87
2021/08/09 00:11:27;;;;;;;7.53;2.70;;;;;;;15.84;80.24;101140.83;1800594;79;21014;-86
2021/08/09 00:13:54;;;;;;;7.03;2.50;;;;;;;15.85;80.22;101141.26;1806567;78;21090;-86
2021/08/09 00:16:21;;;;;;;5.72;2.10;;;;;;;15.85;80.19;101146.56;1803690;79;21464;-87
2021/08/09 00:18:48;;;;;;;7.90;2.52;;;;;;;15.87;80.20;101147.91;1809730;78;21102;-86
2021/08/09 00:21:18;;;;;;;3.72;2.60;;;;;;;15.87;80.26;101142.16;1803744;78;21734;-86
2021/08/09 00:23:45;;;;;;;4.55;2.40;;;;;;;15.90;80.36;101138.66;1803098;78;21027;-86
2021/08/09 00:26:12;;;;;;;5.05;2.37;;;;;;;15.93;80.36;101130.30;1803488;78;21579;-86
2021/08/09 00:28:38;;;;;;;4.92;2.15;;;;;;;15.99;80.43;101128.13;1805267;79;21463;-86
2021/08/09 00:31:05;;;;;;;5.53;2.67;;;;;;;16.04;80.43;101125.05;1806074;78;21516;-86
2021/08/09 00:33:32;;;;;;;5.78;2.37;;;;;;;16.05;80.36;101122.86;1804186;78;21756;-86
2021/08/09 00:35:59;;;;;;;4.87;2.55;;;;;;;16.07;80.34;101123.77;1807258;78;21674;-86
2021/08/09 00:38:25;;;;;;;8.00;2.08;;;;;;;16.08;80.26;101119.33;1806563;78;21034;-86
2021/08/09 00:40:52;;;;;;;7.67;2.25;;;;;;;16.10;80.28;101118.91;1805020;79;21217;-87
2021/08/09 00:45:45;;;;;;;5.10;2.37;;;;;;;16.08;80.07;101129.95;1802769;79;22423;-87
2021/08/09 00:48:11;;;;;;;6.75;2.47;;;;;;;16.06;80.21;101132.59;1807621;77;21074;-86
2021/08/09 00:50:38;;;;;;;8.98;2.90;;;;;;;16.10;80.35;101137.49;1804961;79;20962;-87
2021/08/09 00:53:05;;;;;;;6.83;2.45;;;;;;;16.12;80.37;101142.37;1782817;78;21065;-87
2021/08/09 00:55:31;;;;;;;3.87;2.40;;;;;;;16.11;80.32;101141.50;1803487;78;21563;-87
2021/08/09 00:57:58;;;;;;;4.22;2.42;;;;;;;16.13;80.37;101141.52;1807575;78;21761;-86
2021/08/09 01:00:25;;;;;;;5.12;3.10;;;;;;;16.12;80.37;101141.05;1806428;78;21086;-86
2021/08/09 01:02:51;;;;;;;3.47;2.67;;;;;;;16.12;80.49;101137.06;1808871;79;21143;-86
2021/08/09 01:05:18;;;;;;;9.45;2.80;;;;;;;16.13;80.46;101139.73;1807967;78;21580;-87
2021/08/09 01:08:34;;;;;;;4.00;2.60;;;;;;;16.12;80.35;101145.95;1804870;79;21062;-87
2021/08/09 01:11:29;;;;;;;5.35;2.62;;;;;;;16.09;80.19;101152.55;1809762;78;22657;-87
2021/08/09 01:14:32;;;;;;;6.40;2.62;;;;;;;16.00;80.06;101155.11;1799649;79;21305;-87
2021/08/09 01:17:00;;;;;;;6.92;2.90;;;;;;;15.93;80.10;101158.58;1807295;78;21155;-88
2021/08/09 01:19:25;;;;;;;4.28;2.80;;;;;;;15.85;80.17;101154.98;1807953;78;21003;-87
2021/08/09 01:21:55;;;;;;;4.60;2.70;;;;;;;15.82;80.31;101158.92;1800067;79;20947;-87
2021/08/09 01:24:36;;;;;;;4.50;2.67;;;;;;;15.84;80.45;101152.77;1925217;74;22103;-87
2021/08/09 01:27:29;;;;;;;7.45;2.65;;;;;;;15.82;80.53;101169.53;1864294;76;21014;-88
2021/08/09 01:30:00;;;;;;;6.00;2.65;;;;;;;15.82;80.58;101165.55;1864911;77;21810;-88
2021/08/09 01:32:27;;;;;;;5.60;2.72;;;;;;;15.81;80.65;101164.67;1864857;77;21018;-87
2021/08/09 01:34:53;;;;;;;6.00;2.92;;;;;;;15.81;80.62;101164.67;1865029;77;20980;-88
2021/08/09 01:37:20;;;;;;;7.78;3.20;;;;;;;15.79;80.59;101161.11;1864930;77;21027;-88
2021/08/09 01:39:47;;;;;;;5.87;2.77;;;;;;;15.78;80.53;101169.94;1865052;77;21006;-87
2021/08/09 01:42:15;;;;;;;5.62;2.70;;;;;;;15.74;80.54;101169.02;1865133;77;21783;-88
2021/08/09 01:44:42;;;;;;;5.28;2.60;;;;;;;15.72;80.62;101162.77;1864736;77;21054;-87
2021/08/09 01:47:09;;;;;;;3.92;2.77;;;;;;;15.72;80.73;101155.25;1865046;77;21033;-87
2021/08/09 01:49:36;;;;;;;3.55;2.70;;;;;;;15.74;80.95;101159.72;1864855;77;20996;-87
2021/08/09 01:52:03;;;;;;;8.28;2.67;;;;;;;15.80;81.12;101169.95;1865045;77;21035;-87
2021/08/09 01:54:30;;;;;;;4.12;2.55;;;;;;;15.86;81.27;101179.30;1865042;76;21725;-87
2021/08/09 01:56:57;;;;;;;5.33;2.72;;;;;;;15.92;81.20;101185.58;1862025;77;21010;-87
2021/08/09 01:59:23;;;;;;;9.65;3.10;;;;;;;15.97;81.13;101192.69;1865052;76;21546;-88
2021/08/09 02:01:51;;;;;;;6.50;2.58;;;;;;;16.03;81.13;101194.07;1864967;77;21046;-88
2021/08/09 02:04:19;;;;;;;4.20;2.60;;;;;;;16.06;81.07;101194.11;1864994;77;21063;-88
2021/08/09 02:06:46;;;;;;;5.45;3.00;;;;;;;16.11;81.01;101197.71;1864998;76;21900;-87
2021/08/09 02:09:13;;;;;;;8.15;2.40;;;;;;;16.16;81.15;101189.36;1864914;77;20996;-86
2021/08/09 02:11:55;;;;;;;7.78;2.25;;;;;;;16.23;81.05;101181.87;1865155;77;21486;-88
2021/08/09 02:14:23;;;;;;;4.45;1.75;;;;;;;16.30;80.91;101182.37;1865104;77;21061;-88
2021/08/09 02:17:13;;;;;;;7.40;2.00;;;;;;;16.35;80.49;101185.09;1865027;77;20968;-87
2021/08/09 02:19:43;;;;;;;9.13;2.25;;;;;;;16.40;80.48;101189.09;1865004;76;21757;-88
2021/08/09 02:22:15;;;;;;;9.55;2.72;;;;;;;16.45;80.34;101196.23;1864087;77;21551;-86
2021/08/09 02:24:57;;;;;;;6.92;2.52;;;;;;;16.45;80.11;101184.27;1819926;78;21259;-85
2021/08/09 02:27:21;;;;;;;3.83;2.37;;;;;;;16.46;79.96;101193.13;1821142;78;21069;-87
2021/08/09 02:29:50;;;;;;;11.05;2.50;;;;;;;16.44;79.96;101190.48;1821931;78;20981;-87
2021/08/09 02:32:19;;;;;;;3.92;2.60;;;;;;;16.42;79.94;101193.56;1821886;78;21716;-87
2021/08/09 02:34:46;;;;;;;9.13;2.55;;;;;;;16.41;79.94;101193.55;1821311;78;21072;-88
2021/08/09 02:37:12;;;;;;;7.30;2.65;;;;;;;16.39;79.86;101189.55;1821299;78;21048;-87
2021/08/09 02:39:39;;;;;;;6.75;2.30;;;;;;;16.37;79.84;101183.33;1821255;78;21041;-87
2021/08/09 02:42:06;;;;;;;3.60;2.20;;;;;;;16.37;79.79;101189.06;1821245;78;21079;-87
2021/08/09 02:44:33;;;;;;;4.90;2.92;;;;;;;16.35;79.90;101182.44;1821248;78;21787;-88
2021/08/09 02:47:00;;;;;;;7.05;2.70;;;;;;;16.36;79.94;101177.55;1821289;78;20982;-87
2021/08/09 02:49:26;;;;;;;8.43;2.20;;;;;;;16.34;79.95;101176.66;1821217;78;21064;-87
2021/08/09 02:51:53;;;;;;;12.60;2.83;;;;;;;16.32;79.98;101177.08;1821231;78;21033;-87
2021/08/09 02:54:20;;;;;;;5.47;2.58;;;;;;;16.29;79.95;101187.26;1821218;78;21005;-88
2021/08/09 02:56:46;;;;;;;4.87;2.30;;;;;;;16.24;79.85;101174.36;1821322;78;22521;-87
2021/08/09 02:59:14;;;;;;;5.17;2.35;;;;;;;16.18;79.85;101182.29;1820884;78;21021;-87
2021/08/09 03:01:41;;;;;;;5.12;2.47;;;;;;;16.12;79.85;101177.81;1821160;78;21020;-88
2021/08/09 03:04:09;;;;;;;9.18;2.55;;;;;;;16.05;79.81;101181.73;1821241;78;21662;-88
2021/08/09 03:06:37;;;;;;;8.20;2.55;;;;;;;15.98;79.92;101187.41;1821177;78;21717;-86
2021/08/09 03:09:05;;;;;;;5.72;2.60;;;;;;;15.93;79.97;101193.09;1821190;78;21734;-87
2021/08/09 03:11:33;;;;;;;4.87;2.62;;;;;;;15.88;79.98;101185.55;1821142;78;21021;-88
2021/08/09 03:14:00;;;;;;;3.62;2.62;;;;;;;15.81;80.01;101192.99;1818597;78;21002;-87
2021/08/09 03:16:27;;;;;;;4.95;2.72;;;;;;;15.75;80.09;101191.16;1821116;78;21131;-87
2021/08/09 03:18:53;;;;;;;5.15;2.70;;;;;;;15.70;80.16;101194.16;1821126;78;21020;-86
2021/08/09 03:21:20;;;;;;;7.25;3.25;;;;;;;15.65;80.31;101191.44;1821320;78;21947;-87
2021/08/09 03:23:46;;;;;;;6.65;3.33;;;;;;;15.62;80.40;101195.84;1832659;76;21057;-87
2021/08/09 03:26:13;;;;;;;5.42;3.62;;;;;;;15.58;80.41;101198.91;1847541;77;20987;-87
2021/08/09 03:28:40;;;;;;;6.67;3.10;;;;;;;15.55;80.51;101202.83;1847603;77;21065;-88
2021/08/09 03:31:06;;;;;;;4.62;2.80;;;;;;;15.52;80.54;101206.77;1847726;77;21038;-88
2021/08/09 03:33:33;;;;;;;4.47;2.98;;;;;;;15.51;80.72;101214.28;1847501;77;21757;-87
2021/08/09 03:36:00;;;;;;;6.65;2.80;;;;;;;15.53;80.89;101224.48;1847634;77;21022;-86
2021/08/09 03:38:27;;;;;;;7.22;2.77;;;;;;;15.57;81.07;101228.95;1847579;77;20971;-87
2021/08/09 03:40:54;;;;;;;5.90;2.55;;;;;;;15.63;81.17;101232.98;1847697;77;21002;-87
2021/08/09 03:43:20;;;;;;;8.85;3.30;;;;;;;15.70;81.27;101230.87;1847568;77;21030;-87
2021/08/09 03:45:47;;;;;;;4.35;3.47;;;;;;;15.78;81.47;101228.78;1847630;77;21876;-87
2021/08/09 03:48:14;;;;;;;4.62;3.20;;;;;;;15.89;81.63;101227.13;1847476;77;20994;-88
2021/08/09 03:50:40;;;;;;;5.22;3.10;;;;;;;16.05;81.71;101222.44;1847495;77;20975;-88
2021/08/09 03:53:07;;;;;;;6.40;3.50;;;;;;;16.22;81.62;101233.23;1847482;77;21041;-87
2021/08/09 03:55:34;;;;;;;5.85;3.22;;;;;;;16.35;81.38;101237.31;1847505;77;21049;-87
2021/08/09 03:58:00;;;;;;;3.00;2.70;;;;;;;16.44;81.26;101242.30;1847677;77;21807;-87
2021/08/09 04:00:27;;;;;;;3.67;2.65;;;;;;;16.53;80.99;101246.77;1847114;77;21006;-88
2021/08/09 04:02:54;;;;;;;5.85;3.42;;;;;;;16.56;80.76;101245.48;1847591;77;21002;-88
2021/08/09 04:05:21;;;;;;;4.78;2.67;;;;;;;16.60;80.63;101255.26;1847664;77;21038;-87
2021/08/09 04:07:50;;;;;;;6.83;3.25;;;;;;;16.61;80.44;101261.45;1847439;77;21088;-88
2021/08/09 04:10:17;;;;;;;5.42;3.35;;;;;;;16.61;80.39;101270.34;1847268;77;21839;-85
2021/08/09 04:12:43;;;;;;;5.60;2.83;;;;;;;16.61;80.27;101271.67;1847505;77;20979;-87
2021/08/09 04:15:10;;;;;;;4.37;3.08;;;;;;;16.59;80.28;101276.50;1847565;77;20979;-87
2021/08/09 04:17:37;;;;;;;4.08;2.77;;;;;;;16.59;80.29;101292.45;1847543;77;21445;-87
2021/08/09 04:20:05;;;;;;;8.80;3.10;;;;;;;16.58;80.28;101317.26;1847522;77;21042;-87
2021/08/09 04:22:31;;;;;;;5.28;3.00;;;;;;;16.54;80.19;101295.52;1847595;77;21814;-86
2021/08/09 04:24:58;;;;;;;9.00;2.72;;;;;;;16.51;80.20;101299.02;1847125;77;21593;-87
2021/08/09 04:27:25;;;;;;;5.83;2.60;;;;;;;16.51;80.22;101306.99;1847530;77;21038;-87
2021/08/09 04:29:52;;;;;;;5.72;3.55;;;;;;;16.48;80.13;101302.55;1847138;77;21015;-86
2021/08/09 04:32:19;;;;;;;5.55;2.72;;;;;;;16.50;80.17;101296.81;1847674;77;21042;-89
2021/08/09 04:34:46;;;;;;;4.95;2.87;;;;;;;16.51;80.20;101301.68;1847652;77;22557;-87
2021/08/09 04:37:13;;;;;;;6.10;2.60;;;;;;;16.52;80.17;101287.53;1847403;76;21022;-87
2021/08/09 04:39:40;;;;;;;5.83;3.85;;;;;;;16.55;80.11;101252.11;1847628;77;20995;-87
2021/08/09 04:42:06;;;;;;;5.30;3.10;;;;;;;16.52;79.68;101239.25;1846198;77;21094;-86
2021/08/09 04:44:33;;;;;;;4.80;3.20;;;;;;;16.54;79.80;101269.83;1847444;77;20999;-87
2021/08/09 04:47:00;;;;;;;6.85;3.12;;;;;;;16.57;79.82;101300.40;1847707;77;21790;-89
2021/08/09 04:49:26;;;;;;;5.83;3.62;;;;;;;16.60;79.97;101324.80;1847342;77;21457;-87
2021/08/09 04:51:53;;;;;;;6.05;3.55;;;;;;;16.59;79.94;101319.94;1847465;77;20982;-87
2021/08/09 04:54:20;;;;;;;3.62;3.25;;;;;;;16.62;79.99;101315.08;1818798;77;21698;-86
2021/08/09 04:56:46;;;;;;;5.62;3.60;;;;;;;16.61;79.90;101306.64;1846745;77;20991;-84
2021/08/09 04:59:13;;;;;;;5.65;3.30;;;;;;;16.59;79.82;101296.43;1846930;77;21721;-86
2021/08/09 05:01:40;;;;;;;8.15;3.20;;;;;;;16.58;79.79;101303.97;1846402;76;21777;-86
2021/08/09 05:04:07;;;;;;;4.55;2.85;;;;;;;16.57;79.68;101295.53;1846679;77;21092;-86
2021/08/09 05:06:33;;;;;;;5.28;2.70;;;;;;;16.56;79.60;101294.65;1846864;77;21646;-86
2021/08/09 05:09:00;;;;;;;4.28;3.20;;;;;;;16.55;79.50;101288.87;1830016;77;21012;-89
2021/08/09 05:11:30;;;;;;;6.80;3.40;;;;;;;16.55;79.51;101295.52;1816925;77;21186;-86
2021/08/09 05:13:57;;;;;;;6.15;3.47;;;;;;;16.57;79.57;101295.08;1813259;77;21002;-86
2021/08/09 05:16:24;;;;;;;5.90;3.33;;;;;;;16.63;79.71;101295.58;1813160;79;21037;-86
2021/08/09 05:18:52;;;;;;;6.40;4.03;;;;;;;16.68;79.71;101294.73;1813936;79;20982;-86
2021/08/09 05:21:19;;;;;;;6.37;3.42;;;;;;;16.74;79.63;101289.03;1813638;79;21065;-86
2021/08/09 05:23:46;;;;;;;7.40;3.40;;;;;;;16.81;79.73;101289.09;1815370;77;21750;-87
2021/08/09 05:26:13;;;;;;;7.17;3.05;;;;;;;16.91;79.74;101303.38;1821840;78;21507;-86
2021/08/09 05:28:39;;;;;;;5.03;3.25;;;;;;;16.98;79.67;101305.66;1821931;78;20983;-86
2021/08/09 05:31:07;;;;;;;6.03;3.15;;;;;;;17.03;79.61;101300.82;1821812;78;21025;-86
2021/08/09 05:33:34;;;;;;;6.87;3.60;;;;;;;17.15;79.67;101297.34;1822105;78;21009;-86
2021/08/09 05:36:01;;;;;;;3.87;3.00;;;;;;;17.28;79.73;101296.54;1821551;78;21793;-86
2021/08/09 05:38:28;;;;;;;4.55;2.85;;;;;;;17.43;79.59;101304.17;1822155;78;21033;-87
2021/08/09 05:40:55;;;;;;;4.87;2.92;;;;;;;17.78;80.51;101301.69;1822121;78;21096;-86
2021/08/09 05:43:21;;;;;;;6.42;3.30;;;;;;;19.02;82.95;101292.17;1822133;78;21022;-87
2021/08/09 05:45:48;;;;;;;4.92;2.95;;;;;;;20.90;82.69;101283.25;1822258;78;21558;-86
2021/08/09 05:48:15;;;;;;;4.17;2.62;;;;;;;21.54;78.14;101284.39;1822376;78;21686;-86
2021/08/09 05:50:41;;;;;;;5.65;3.05;;;;;;;21.41;75.42;101291.63;1821694;78;21025;-87
2021/08/09 05:53:08;;;;;;;4.37;2.80;;;;;;;21.08;74.28;101290.23;1822076;78;21103;-86
2021/08/09 05:55:35;;;;;;;4.55;3.02;;;;;;;20.74;73.62;101290.08;1821925;78;21005;-86
2021/08/09 05:58:01;;;;;;;6.05;2.70;;;;;;;20.51;73.72;101288.86;1822204;78;21061;-86
2021/08/09 06:00:28;;;;;;;4.55;2.62;;;;;;;20.42;73.90;101279.61;1821968;78;21728;-87
2021/08/09 06:02:55;;;;;;;4.42;2.90;;;;;;;20.48;74.23;101280.89;1821820;78;21005;-87
2021/08/09 06:05:21;;;;;;;4.30;2.83;;;;;;;20.69;74.33;101285.20;1822149;78;21037;-87
2021/08/09 06:07:48;;;;;;;3.40;2.45;;;;;;;20.81;73.96;101289.55;1822199;78;21032;-87
2021/08/09 06:10:15;;;;;;;3.10;2.25;;;;;;;20.94;73.41;101292.55;1822395;78;20986;-87
2021/08/09 06:12:42;;;;;;;2.77;2.25;;;;;;;21.07;73.27;101292.45;1822395;78;22466;-87
2021/08/09 06:15:09;;;;;;;7.20;2.72;;;;;;;21.15;73.08;101289.23;1822292;78;21013;-87
2021/08/09 06:17:36;;;;;;;6.03;3.35;;;;;;;21.22;72.80;101290.08;1822518;78;21402;-86
2021/08/09 06:20:05;;;;;;;3.85;2.60;;;;;;;21.20;72.60;101290.08;1822391;78;21040;-87
2021/08/09 06:22:34;;;;;;;4.17;2.42;;;;;;;21.13;72.29;101293.30;1822312;77;21001;-87
2021/08/09 06:25:01;;;;;;;5.33;2.65;;;;;;;21.07;72.12;101296.47;1822019;77;22572;-87
2021/08/09 06:27:29;;;;;;;5.97;2.87;;;;;;;20.99;71.98;101299.22;1821948;78;22182;-87
2021/08/09 06:29:55;;;;;;;4.67;2.60;;;;;;;20.95;72.02;101300.16;1822305;78;20997;-87
2021/08/09 06:32:24;;;;;;;4.42;2.77;;;;;;;20.88;72.02;101303.32;1822221;78;21005;-86
2021/08/09 06:56:14;;;;;;;5.90;3.50;;;;;;;21.06;72.12;101310.73;1849423;77;23979;-84
2021/08/09 06:58:57;;;;;;;5.87;2.90;;;;;;;21.08;71.56;101315.66;1814110;78;21185;-84
2021/08/09 07:01:28;;;;;;;3.50;3.17;;;;;;;21.07;71.36;101320.55;1798336;78;21806;-85
2021/08/09 07:03:56;;;;;;;7.97;2.47;;;;;;;21.09;71.13;101316.08;1763670;79;21073;-85
2021/08/09 07:06:23;;;;;;;6.78;2.87;;;;;;;21.10;70.70;101321.87;1764423;80;21063;-85
2021/08/09 07:08:50;;;;;;;3.85;2.47;;;;;;;21.11;70.51;101321.84;1796901;78;21038;-85
2021/08/09 07:11:17;;;;;;;6.00;2.60;;;;;;;21.11;70.11;101329.87;1797598;78;20994;-84
2021/08/09 07:13:45;;;;;;;3.17;2.83;;;;;;;21.13;70.44;101330.77;1792571;79;21463;-85
2021/08/09 07:16:16;;;;;;;4.95;3.80;;;;;;;21.18;70.20;101332.05;1780044;80;21469;-85
2021/08/09 07:18:40;;;;;;;3.75;2.52;;;;;;;21.22;70.07;101332.91;1787234;79;21181;-84
2021/08/09 07:21:12;;;;;;;5.83;2.75;;;;;;;21.25;70.03;101336.91;1767406;80;21123;-84
2021/08/09 07:23:38;;;;;;;9.13;4.75;;;;;;;21.28;69.83;101337.73;1755697;80;21018;-85
2021/08/09 07:26:05;;;;;;;10.45;7.72;;;;;;;21.30;69.68;101337.73;1787166;78;21866;-84
2021/08/09 07:28:33;;;;;;;7.35;5.05;;;;;;;21.32;69.43;101346.20;1751656;80;21523;-84
2021/08/09 07:30:59;;;;;;;8.70;6.12;;;;;;;21.31;69.11;101350.23;1744052;80;21057;-84
2021/08/09 07:33:26;;;;;;;5.85;4.62;;;;;;;21.29;68.88;101344.88;1749134;80;21023;-84
2021/08/09 07:35:53;;;;;;;5.22;3.35;;;;;;;21.28;68.75;101354.26;1730243;81;21085;-85
2021/08/09 07:38:20;;;;;;;5.67;3.15;;;;;;;21.29;68.72;101347.56;1752489;80;21790;-84
2021/08/09 07:40:47;;;;;;;3.50;2.72;;;;;;;21.31;68.47;101345.75;1782876;79;21002;-84
2021/08/09 07:43:13;;;;;;;8.85;6.58;;;;;;;21.30;68.25;101345.33;1794430;79;21488;-84
2021/08/09 07:45:40;;;;;;;5.00;3.00;;;;;;;21.33;68.22;101351.97;1788658;78;21064;-85
2021/08/09 07:48:07;;;;;;;7.40;5.00;;;;;;;21.34;68.07;101347.50;1788603;78;21039;-85
2021/08/09 07:50:34;;;;;;;5.05;2.80;;;;;;;21.39;68.01;101350.15;1790364;79;21763;-84
2021/08/09 07:53:01;;;;;;;6.42;3.58;;;;;;;21.44;67.93;101352.33;1789197;79;22559;-84
2021/08/09 07:55:27;;;;;;;7.10;3.40;;;;;;;21.48;67.77;101356.33;1808436;79;20991;-84
2021/08/09 07:57:54;;;;;;;6.80;3.42;;;;;;;21.53;67.83;101359.84;1814894;79;21031;-85
2021/08/09 08:00:21;;;;;;;5.42;2.77;;;;;;;21.60;67.65;101352.61;1815126;78;21066;-84
2021/08/09 08:02:50;;;;;;;5.45;3.20;;;;;;;21.66;67.42;101357.02;1775333;80;21911;-84
2021/08/09 08:05:17;;;;;;;6.92;3.10;;;;;;;21.72;67.09;101357.84;1766592;80;21258;-85
2021/08/09 08:07:43;;;;;;;3.67;2.40;;;;;;;21.79;66.42;101359.11;1778327;80;21100;-84
2021/08/09 08:10:11;;;;;;;4.75;2.58;;;;;;;21.84;66.39;101355.47;1770681;80;21012;-84
2021/08/09 08:12:41;;;;;;;8.65;6.05;;;;;;;21.89;66.05;101359.45;1778379;80;21111;-84
2021/08/09 08:15:07;;;;;;;7.28;5.00;;;;;;;21.90;65.35;101358.52;1768217;80;21818;-85
2021/08/09 08:17:34;;;;;;;6.83;3.00;;;;;;;21.91;65.22;101354.49;1772257;80;21250;-84
2021/08/09 08:20:02;;;;;;;5.30;2.80;;;;;;;21.93;65.33;101366.08;1773413;80;21078;-84
2021/08/09 08:22:28;;;;;;;8.85;3.30;;;;;;;21.99;65.37;101361.55;1763164;80;21118;-84
2021/08/09 08:24:57;;;;;;;4.42;2.80;;;;;;;22.04;64.88;101363.27;1747717;80;21574;-84
2021/08/09 08:27:24;;;;;;;3.72;2.30;;;;;;;22.22;64.47;101363.92;1773658;80;22611;-83
2021/08/09 08:29:50;;;;;;;5.75;2.45;;;;;;;22.22;64.47;101363.92;1771285;80;21017;-85
2021/08/09 08:32:17;;;;;;;5.25;2.62;;;;;;;22.27;64.18;101364.33;1776338;80;21051;-85
2021/08/09 08:35:02;;;;;;;4.83;2.55;;;;;;;22.28;63.47;101370.14;1773820;80;21023;-85
2021/08/09 08:37:37;;;;;;;3.00;2.12;;;;;;;22.28;63.22;101367.89;1629563;84;21051;-84
2021/08/09 08:40:07;;;;;;;24.27;5.83;;;;;;;22.28;62.18;101366.13;1653296;86;21114;-85
2021/08/09 08:42:33;;;;;;;41.13;6.10;;;;;;;22.29;62.03;101365.20;1687023;84;21047;-84
2021/08/09 08:47:41;;;;;;;10.40;3.10;;;;;;;22.40;61.34;101365.05;1620760;85;21107;-84
2021/08/09 08:50:31;;;;;;;6.05;2.65;;;;;;;22.50;61.54;101371.17;1672780;83;21675;-85
2021/08/09 08:52:59;;;;;;;7.17;2.15;;;;;;;22.74;61.26;101352.47;1709874;83;21130;-85
2021/08/09 08:55:26;;;;;;;3.58;2.02;;;;;;;22.74;61.26;101352.47;1705074;84;21110;-85
2021/08/09 08:57:53;;;;;;;4.05;1.87;;;;;;;23.01;60.34;101371.28;1714625;82;21190;-85
2021/08/09 09:00:20;;;;;;;5.33;2.30;;;;;;;23.14;59.66;101374.66;1782186;79;21997;-84
2021/08/09 09:03:22;;;;;;;4.90;2.00;;;;;;;23.14;59.66;101374.66;1766179;80;21082;-85
2021/08/09 09:09:45;;;;;;;5.15;2.02;;;;;;;23.31;58.53;101373.01;1668039;81;21137;-84
2021/08/09 09:11:58;;;;;;;3.17;1.98;;;;;;;23.31;58.53;101373.01;1702034;81;21078;-84
2021/08/09 09:14:31;;;;;;;3.37;1.98;;;;;;;23.28;57.90;101367.25;1752558;81;21094;-84
2021/08/09 09:16:59;;;;;;;3.95;2.60;;;;;;;23.39;57.59;101376.47;1752231;81;21210;-84
2021/08/09 09:19:34;;;;;;;7.40;2.08;;;;;;;23.49;57.08;101377.17;1752321;81;21829;-84
2021/08/09 09:22:20;;;;;;;2.67;1.90;;;;;;;23.61;57.07;101384.11;1751952;81;21582;-85
2021/08/09 09:24:53;;;;;;;4.28;1.95;;;;;;;23.74;56.46;101389.67;1752535;81;21579;-86
2021/08/09 09:27:34;;;;;;;7.28;2.47;;;;;;;23.97;56.36;101386.58;1749213;81;21111;-86
2021/08/09 09:30:03;;;;;;;3.65;2.42;;;;;;;24.24;55.95;101383.75;1741262;81;21122;-86
2021/08/09 09:32:29;;;;;;;3.50;2.77;;;;;;;24.56;55.67;101386.21;1703511;82;21700;-86
2021/08/09 09:34:56;;;;;;;5.80;2.10;;;;;;;24.86;55.18;101386.41;1741382;81;21027;-86
2021/08/09 09:37:28;;;;;;;3.83;1.72;;;;;;;25.13;54.88;101386.64;1732193;81;21762;-85
2021/08/09 09:40:06;;;;;;;4.60;2.00;;;;;;;25.31;54.20;101390.72;1733432;82;21118;-85
2021/08/09 09:42:42;;;;;;;5.35;2.40;;;;;;;25.45;54.11;101380.44;1762592;80;21097;-85
2021/08/09 09:45:30;;;;;;;3.37;1.82;;;;;;;25.71;53.90;101384.23;1765964;80;21743;-85
2021/08/09 09:48:09;;;;;;;4.50;1.75;;;;;;;25.78;52.62;101388.53;1768819;80;21034;-85
2021/08/09 09:50:43;;;;;;;3.37;1.62;;;;;;;25.64;52.20;101388.94;1770928;80;21461;-85
2021/08/09 09:53:16;;;;;;;3.75;1.60;;;;;;;25.64;51.58;101391.63;1767697;80;21043;-85
2021/08/09 09:55:43;;;;;;;;;;;;;;;25.70;51.47;101391.92;1773178;81;21126;-86
2021/08/09 09:58:10;;;;;;;2.12;1.60;;;;;;;25.68;50.60;101391.96;1767809;80;21768;-85
2021/08/09 10:00:37;;;;;;;4.83;1.95;;;;;;;25.74;51.23;101388.20;1781761;80;21059;-87
2021/08/09 10:03:04;;;;;;;3.08;1.72;;;;;;;25.84;50.95;101388.35;1781505;80;21066;-86
2021/08/09 10:05:32;;;;;;;3.90;1.70;;;;;;;25.88;50.85;101391.38;1771547;80;21055;-86
2021/08/09 10:07:58;;;;;;;3.20;1.60;;;;;;;26.02;50.55;101386.98;1766400;80;21090;-86
2021/08/09 10:10:25;;;;;;;3.70;1.67;;;;;;;26.26;50.25;101384.47;1773543;80;21898;-86
2021/08/09 10:12:52;;;;;;;2.05;1.40;;;;;;;26.47;49.59;101382.47;1763790;80;21108;-86
2021/08/09 10:15:20;;;;;;;4.75;1.60;;;;;;;26.63;48.96;101377.97;1774102;80;21059;-86
2021/08/09 10:17:51;;;;;;;1.60;1.30;;;;;;;26.73;49.08;101388.91;1756419;81;21075;-85
2021/08/09 10:20:18;;;;;;;3.42;1.52;;;;;;;26.84;48.30;101382.69;1765128;80;21516;-86
2021/08/09 10:23:05;;;;;;;4.05;1.62;;;;;;;27.00;48.07;101392.98;1770341;80;21791;-86
2021/08/09 10:25:50;;;;;;;3.75;1.60;;;;;;;27.11;47.88;101393.50;1771023;81;21058;-86
2021/08/09 10:28:18;;;;;;;4.05;1.90;;;;;;;27.25;47.99;101391.66;1771147;80;21137;-85
2021/08/09 10:30:44;;;;;;;4.05;2.00;;;;;;;27.34;47.46;101398.14;1761004;81;21078;-85
2021/08/09 10:33:11;;;;;;;6.25;1.87;;;;;;;27.36;47.01;101400.32;1768001;80;21098;-86
2021/08/09 10:35:53;;;;;;;5.37;1.90;;;;;;;27.33;46.91;101401.33;1770463;81;21846;-86
2021/08/09 10:38:25;;;;;;;5.90;1.87;;;;;;;27.31;46.89;101401.84;1771869;80;21654;-85
2021/08/09 10:41:12;;;;;;;6.12;1.80;;;;;;;27.29;46.43;101403.72;1771085;80;21083;-86
2021/08/09 10:44:10;;;;;;;5.03;1.95;;;;;;;27.24;46.69;101401.60;1766703;80;21583;-86
2021/08/09 10:46:41;;;;;;;5.05;1.75;;;;;;;27.26;46.78;101397.06;1763186;80;20999;-86
2021/08/09 10:49:09;;;;;;;4.50;2.05;;;;;;;27.28;46.73;101397.88;1769222;81;21791;-85
2021/08/09 10:51:56;;;;;;;4.90;2.02;;;;;;;27.28;46.47;101401.94;1771010;80;21545;-86
2021/08/09 10:54:36;;;;;;;3.08;1.42;;;;;;;27.26;45.61;101401.11;1767275;80;21098;-86
2021/08/09 10:57:05;;;;;;;4.87;1.75;;;;;;;27.17;45.21;101401.39;1770677;81;21473;-85
2021/08/09 10:59:46;;;;;;;6.35;1.70;;;;;;;27.21;45.16;101400.34;1770842;81;21015;-86
2021/08/09 11:02:22;;;;;;;1.65;1.40;;;;;;;27.34;44.94;101399.02;1770809;80;21707;-86
2021/08/09 11:05:20;;;;;;;4.78;1.50;;;;;;;27.34;44.36;101403.55;1768234;81;21032;-86
2021/08/09 11:07:46;;;;;;;3.33;1.22;;;;;;;27.27;44.18;101398.84;1740829;81;21580;-86
2021/08/09 11:10:13;;;;;;;7.25;2.58;;;;;;;27.25;44.21;101396.63;1736766;82;21060;-86
2021/08/09 11:13:00;;;;;;;2.58;1.50;;;;;;;27.24;44.23;101397.55;1695591;83;21082;-86
2021/08/09 11:15:28;;;;;;;3.47;1.50;;;;;;;27.23;44.06;101399.82;1726508;82;22553;-86
2021/08/09 11:17:57;;;;;;;2.50;1.27;;;;;;;27.17;43.93;101409.50;1735313;81;21091;-86
2021/08/09 11:20:33;;;;;;;5.45;1.50;;;;;;;27.10;43.60;101403.88;1737825;82;21056;-85
2021/08/09 11:23:10;;;;;;;3.72;1.60;;;;;;;27.03;43.70;101401.87;1761878;80;21050;-86
2021/08/09 11:25:47;;;;;;;1.87;1.40;;;;;;;27.02;43.59;101405.97;1774673;80;21028;-86
2021/08/09 11:28:20;;;;;;;2.87;1.42;;;;;;;27.04;43.85;101403.62;1759627;80;21803;-86
2021/08/09 11:31:00;;;;;;;3.42;1.35;;;;;;;27.11;43.41;101411.06;1763673;80;21129;-85
2021/08/09 11:33:38;;;;;;;2.22;1.35;;;;;;;27.02;43.04;101412.25;1766879;80;21555;-85
2021/08/09 11:36:07;;;;;;;3.08;1.32;;;;;;;27.06;42.52;101414.38;1770070;81;21062;-85
2021/08/09 11:38:55;;;;;;;2.47;1.30;;;;;;;27.13;42.41;101415.95;1770903;80;21031;-85
2021/08/09 11:41:24;;;;;;;1.07;0.98;;;;;;;27.15;41.89;101405.97;1767769;81;21778;-85
2021/08/09 11:44:05;;;;;;;4.12;1.22;;;;;;;27.11;41.77;101418.70;1767727;80;21043;-85
2021/08/09 11:46:34;;;;;;;3.60;1.30;;;;;;;27.02;41.63;101420.83;1762500;81;21496;-85
2021/08/09 11:49:00;;;;;;;3.83;1.37;;;;;;;26.96;42.07;101418.73;1769543;81;21098;-85
2021/08/09 11:51:30;;;;;;;3.50;1.50;;;;;;;27.01;41.98;101423.09;1722509;81;21481;-85
2021/08/09 11:53:57;;;;;;;5.42;1.42;;;;;;;27.09;41.82;101431.85;1768465;80;21794;-85
2021/08/09 11:56:34;;;;;;;1.95;1.20;;;;;;;27.17;41.58;101423.01;1766989;81;21048;-85
2021/08/09 11:58:58;;;;;;;1.70;0.97;;;;;;;27.27;41.39;101423.61;1766056;81;21094;-85
2021/08/09 12:01:34;;;;;;;2.92;1.57;;;;;;;27.37;41.05;101422.82;1763591;80;21051;-86
2021/08/09 12:04:09;;;;;;;2.85;1.17;;;;;;;27.50;40.73;101432.30;1768924;80;21048;-85
2021/08/09 12:06:56;;;;;;;2.15;1.17;;;;;;;27.59;40.76;101418.46;1769392;80;21731;-85